Time;durP1;ratioP1;P1;durP2;ratioP2;P2;SDS_P1;SDS_P2;PMS_P1;PMS_P2;Temp;Humidity;BMP_temperature;BMP_pressure;BME280_temperature;BME280_humidity;BME280_pressure;Samples;Min_cycle;Max_cycle;Signal;HPM_P1;HPM_P2
2023/07/21 00:00:18;;;;;;;6.50;5.90;;;;;;;13.36;100.00;101094.09;4963562;28;20395;-94
2023/07/21 00:02:47;;;;;;;6.50;5.90;;;;;;;13.25;100.00;101079.31;4964215;28;20038;-94
2023/07/21 00:05:15;;;;;;;6.47;5.88;;;;;;;13.23;100.00;101089.59;4980103;28;20387;-94
2023/07/21 00:07:44;;;;;;;7.50;6.32;;;;;;;13.14;100.00;101081.72;4963868;28;20038;-94
2023/07/21 00:10:13;;;;;;;10.43;6.28;;;;;;;13.15;100.00;101085.28;4963911;28;20387;-93
2023/07/21 00:12:42;;;;;;;7.15;6.40;;;;;;;13.14;100.00;101079.00;4979501;28;20030;-96
2023/07/21 00:15:15;;;;;;;7.47;6.70;;;;;;;13.12;100.00;101078.41;4978433;28;20030;-95
2023/07/21 00:17:44;;;;;;;9.13;6.97;;;;;;;13.15;100.00;101093.44;4979976;28;20030;-95
2023/07/21 00:20:18;;;;;;;7.80;7.00;;;;;;;13.12;100.00;101080.28;4979549;28;20061;-94
2023/07/21 00:22:44;;;;;;;8.13;6.50;;;;;;;13.14;100.00;101087.19;4996749;28;20117;-94
2023/07/21 00:25:10;;;;;;;7.93;6.40;;;;;;;13.02;100.00;101067.22;4979570;28;20121;-94
2023/07/21 00:27:40;;;;;;;11.85;6.35;;;;;;;13.01;100.00;101070.97;4979354;28;20037;-93
2023/07/21 00:30:09;;;;;;;7.88;6.40;;;;;;;13.03;100.00;101073.47;4979426;28;20117;-94
2023/07/21 00:32:43;;;;;;;10.68;6.80;;;;;;;13.05;100.00;101068.63;4980005;28;20027;-94
2023/07/21 00:35:12;;;;;;;9.40;6.77;;;;;;;13.04;100.00;101064.25;4979582;28;20041;-94
2023/07/21 00:37:46;;;;;;;9.23;7.03;;;;;;;13.07;100.00;101070.06;4996296;28;20471;-95
2023/07/21 00:40:23;;;;;;;9.93;6.47;;;;;;;13.10;100.00;101072.34;4979639;28;20034;-94
2023/07/21 00:42:48;;;;;;;10.23;6.38;;;;;;;13.02;100.00;101058.19;4964375;28;20039;-94
2023/07/21 00:45:19;;;;;;;7.17;6.40;;;;;;;13.04;100.00;101056.09;4979730;28;20029;-94
2023/07/21 00:47:45;;;;;;;10.25;7.60;;;;;;;13.01;100.00;101057.38;4979602;28;20101;-94
2023/07/21 00:50:15;;;;;;;7.78;6.95;;;;;;;13.08;100.00;101062.72;4979193;28;20455;-94
2023/07/21 00:52:48;;;;;;;7.90;7.10;;;;;;;13.05;100.00;101063.19;4979050;28;20029;-94
2023/07/21 00:55:22;;;;;;;8.30;6.80;;;;;;;13.00;100.00;101052.97;4996187;28;20022;-94
2023/07/21 00:57:50;;;;;;;7.57;6.88;;;;;;;12.96;100.00;101049.88;4996480;28;20034;-94
2023/07/21 01:00:16;;;;;;;9.15;7.53;;;;;;;12.98;100.00;101057.81;4978811;28;20048;-95
2023/07/21 01:02:41;;;;;;;8.43;7.03;;;;;;;12.99;100.00;101062.19;4996518;28;20109;-94
2023/07/21 01:05:08;;;;;;;10.33;7.23;;;;;;;12.91;100.00;101044.25;4980266;28;20049;-95
2023/07/21 01:07:45;;;;;;;9.63;7.05;;;;;;;12.85;100.00;101045.16;4993573;28;20114;-94
2023/07/21 01:10:11;;;;;;;9.90;6.60;;;;;;;12.86;100.00;101051.44;5011704;28;20041;-94
2023/07/21 01:12:42;;;;;;;10.18;7.00;;;;;;;12.76;100.00;101038.38;4994276;28;20050;-94
2023/07/21 01:15:10;;;;;;;9.75;7.60;;;;;;;12.73;100.00;101030.66;4993971;28;20026;-95
2023/07/21 01:17:38;;;;;;;8.67;7.13;;;;;;;12.71;100.00;101027.31;5010815;28;20065;-95
2023/07/21 01:20:06;;;;;;;8.60;7.20;;;;;;;12.73;100.00;101041.53;4993376;28;20026;-95
2023/07/21 01:22:52;;;;;;;8.90;6.55;;;;;;;12.76;100.00;101041.91;4992474;28;20026;-94
2023/07/21 01:25:22;;;;;;;8.55;7.57;;;;;;;12.72;100.00;101023.53;4980995;28;20061;-94
2023/07/21 01:27:53;;;;;;;8.88;7.10;;;;;;;12.64;100.00;101028.22;4980160;28;20038;-94
2023/07/21 01:30:20;;;;;;;8.53;7.37;;;;;;;12.63;100.00;101025.72;4983506;28;20065;-94
2023/07/21 01:32:46;;;;;;;8.57;7.45;;;;;;;12.64;100.00;101030.09;4998866;28;20045;-96
2023/07/21 01:35:17;;;;;;;8.63;7.20;;;;;;;12.62;100.00;101033.06;4985419;28;20467;-94
2023/07/21 01:37:46;;;;;;;9.20;7.63;;;;;;;12.53;100.00;101028.94;4999211;28;20042;-94
2023/07/21 01:40:16;;;;;;;10.02;7.20;;;;;;;12.48;100.00;101017.91;4979354;28;20058;-95
2023/07/21 01:42:54;;;;;;;7.37;6.43;;;;;;;12.46;100.00;101034.47;4978779;28;20383;-95
2023/07/21 01:45:22;;;;;;;8.40;7.05;;;;;;;12.46;100.00;101023.56;4978219;28;20022;-95
2023/07/21 01:47:51;;;;;;;11.25;7.20;;;;;;;12.40;100.00;101019.03;4978175;28;20512;-95
2023/07/21 01:50:18;;;;;;;8.82;7.15;;;;;;;12.41;100.00;101022.56;4995824;28;20022;-94
2023/07/21 01:52:45;;;;;;;8.07;7.07;;;;;;;12.45;100.00;101016.44;4977891;28;20026;-94
2023/07/21 01:55:19;;;;;;;10.13;7.33;;;;;;;12.42;100.00;101021.53;4978300;28;20128;-94
2023/07/21 01:57:51;;;;;;;8.50;7.05;;;;;;;12.38;100.00;101007.50;4978141;28;20069;-94
2023/07/21 02:00:23;;;;;;;7.78;6.97;;;;;;;12.34;100.00;101002.75;4978069;28;20081;-94
2023/07/21 02:02:53;;;;;;;9.55;7.15;;;;;;;12.39;100.00;101014.63;4977739;28;20043;-94
2023/07/21 02:05:42;;;;;;;8.63;7.72;;;;;;;12.30;100.00;101002.38;4978166;28;20074;-95
2023/07/21 02:08:10;;;;;;;9.80;7.40;;;;;;;12.32;100.00;101000.25;4963280;28;20038;-94
2023/07/21 02:10:39;;;;;;;9.55;7.68;;;;;;;12.26;100.00;100998.44;4961746;28;20084;-94
2023/07/21 02:13:08;;;;;;;8.48;7.55;;;;;;;12.29;100.00;101006.97;4978010;28;20073;-94
2023/07/21 02:15:39;;;;;;;9.88;8.00;;;;;;;12.25;100.00;101002.19;4995337;28;20030;-94
2023/07/21 02:18:14;;;;;;;8.55;7.63;;;;;;;12.26;100.00;100995.72;4995251;28;20512;-95
2023/07/21 02:20:42;;;;;;;10.00;7.30;;;;;;;12.26;100.00;100998.44;4978363;28;20113;-95
2023/07/21 02:23:15;;;;;;;8.88;7.55;;;;;;;12.28;100.00;101002.59;4978795;28;20030;-95
2023/07/21 02:25:44;;;;;;;8.80;7.78;;;;;;;12.26;100.00;101007.41;4978043;28;20035;-94
2023/07/21 02:28:14;;;;;;;14.38;7.22;;;;;;;12.24;100.00;100997.84;4962107;28;20035;-94
2023/07/21 02:30:49;;;;;;;8.43;7.40;;;;;;;12.13;100.00;100988.50;4977654;28;20038;-94
2023/07/21 02:33:41;;;;;;;;;;;;;;;;;;;;;
2023/07/21 02:36:10;;;;;;;8.55;7.65;;;;;;;12.08;100.00;100986.44;4981166;28;20028;-95
2023/07/21 02:38:38;;;;;;;8.52;7.60;;;;;;;12.14;100.00;100997.50;4979240;28;20113;-94
2023/07/21 02:41:05;;;;;;;9.65;7.55;;;;;;;12.05;100.00;100986.88;4966084;28;20038;-94
2023/07/21 02:43:32;;;;;;;10.93;7.25;;;;;;;12.03;100.00;100986.28;4998483;28;20104;-95
2023/07/21 02:46:12;;;;;;;7.63;6.87;;;;;;;12.04;100.00;100990.66;4980978;28;20067;-94
2023/07/21 02:48:48;;;;;;;8.68;7.13;;;;;;;11.95;100.00;100981.09;4966674;28;20036;-94
2023/07/21 02:51:26;;;;;;;;;;;;;;;;;;;;;
2023/07/21 02:54:00;;;;;;;8.07;6.80;;;;;;;11.92;100.00;100978.81;4982837;28;20058;-93
2023/07/21 02:56:44;;;;;;;7.95;7.00;;;;;;;11.92;100.00;100976.91;4980910;28;20491;-94
2023/07/21 02:59:15;;;;;;;7.77;6.97;;;;;;;11.83;100.00;100977.41;4998152;28;20038;-94
2023/07/21 03:01:40;;;;;;;9.68;7.13;;;;;;;11.78;100.00;100980.81;4981010;28;20058;-94
2023/07/21 03:04:08;;;;;;;8.32;6.85;;;;;;;11.83;100.00;100988.28;4981597;28;20035;-94
2023/07/21 03:06:36;;;;;;;9.10;7.00;;;;;;;11.75;100.00;100987.50;4998236;28;20084;-93
2023/07/21 03:09:05;;;;;;;8.25;7.18;;;;;;;11.71;100.00;100975.41;4981019;28;20061;-94
2023/07/21 03:11:42;;;;;;;8.70;7.32;;;;;;;11.74;100.00;100991.25;4980703;28;20030;-93
2023/07/21 03:14:15;;;;;;;8.77;7.65;;;;;;;11.63;100.00;100986.53;4981218;28;20069;-93
2023/07/21 03:16:41;;;;;;;7.47;6.60;;;;;;;11.62;100.00;100978.59;4981026;28;20053;-95
2023/07/21 03:19:12;;;;;;;8.90;6.87;;;;;;;11.64;100.00;100988.19;4997799;28;20498;-94
2023/07/21 03:21:45;;;;;;;8.30;7.28;;;;;;;11.59;100.00;100988.03;4981062;28;20554;-95
2023/07/21 03:24:11;;;;;;;7.75;6.90;;;;;;;11.62;100.00;100984.03;5013642;28;20092;-95
2023/07/21 03:26:39;;;;;;;9.10;7.43;;;;;;;11.55;100.00;100978.66;4998021;28;20026;-94
2023/07/21 03:29:05;;;;;;;9.68;7.47;;;;;;;11.50;100.00;100973.03;4980442;28;20476;-95
2023/07/21 03:31:38;;;;;;;11.37;7.60;;;;;;;11.46;100.00;100982.69;4997481;28;20105;-95
2023/07/21 03:34:09;;;;;;;7.80;6.97;;;;;;;11.48;100.00;100986.81;5013665;28;20102;-94
2023/07/21 03:36:44;;;;;;;;;;;;;;;;;;;;;
2023/07/21 03:39:15;;;;;;;9.60;8.18;;;;;;;11.35;100.00;100981.47;4998314;28;20023;-95
2023/07/21 03:41:43;;;;;;;9.00;7.35;;;;;;;11.28;100.00;100978.81;4980793;28;20084;-94
2023/07/21 03:44:15;;;;;;;10.20;7.50;;;;;;;11.26;100.00;100980.88;4979601;28;20409;-95
2023/07/21 03:46:48;;;;;;;10.82;7.45;;;;;;;11.24;100.00;100980.28;4981350;28;20026;-94
2023/07/21 03:49:14;;;;;;;8.93;7.72;;;;;;;11.22;100.00;100975.06;4965382;28;20126;-94
2023/07/21 03:51:40;;;;;;;12.33;8.20;;;;;;;11.18;100.00;100976.53;4981039;28;20125;-94
2023/07/21 03:54:05;;;;;;;9.43;8.20;;;;;;;11.19;100.00;100977.38;4979983;28;20054;-93
2023/07/21 03:56:40;;;;;;;9.85;8.18;;;;;;;11.28;100.00;100989.66;4979980;28;20036;-94
2023/07/21 03:59:08;;;;;;;12.17;9.73;;;;;;;11.26;100.00;100982.78;4965503;28;20092;-95
2023/07/21 04:01:38;;;;;;;11.10;9.57;;;;;;;11.31;100.00;100988.38;4997035;28;20026;-93
2023/07/21 04:04:06;;;;;;;14.93;8.98;;;;;;;11.24;100.00;100977.56;4980614;28;20030;-95
2023/07/21 04:06:41;;;;;;;12.32;9.98;;;;;;;11.23;100.00;100971.31;4979817;28;20133;-94
2023/07/21 04:09:16;;;;;;;12.30;10.43;;;;;;;11.30;100.00;100979.41;4964840;28;20464;-94
2023/07/21 04:11:46;;;;;;;11.03;9.83;;;;;;;11.20;100.00;100960.84;4980086;28;20125;-94
2023/07/21 04:14:12;;;;;;;14.25;10.32;;;;;;;11.22;100.00;100964.19;4963820;28;20475;-94
2023/07/21 04:16:39;;;;;;;13.88;10.13;;;;;;;11.16;100.00;100956.94;4979478;28;20168;-95
2023/07/21 04:19:14;;;;;;;13.87;10.83;;;;;;;11.13;100.00;100962.78;4979303;28;20081;-94
2023/07/21 04:21:50;;;;;;;12.73;10.98;;;;;;;11.12;100.00;100963.00;4979508;28;20035;-94
2023/07/21 04:24:15;;;;;;;11.38;10.18;;;;;;;11.13;100.00;100951.06;4979386;28;20041;-94
2023/07/21 04:26:49;;;;;;;11.77;10.30;;;;;;;11.19;100.00;100963.78;4996929;28;20034;-93
2023/07/21 04:29:29;;;;;;;;;;;;;;;;;;;;;
2023/07/21 04:31:57;;;;;;;14.13;11.07;;;;;;;11.26;100.00;100961.06;4996834;28;20030;-94
2023/07/21 04:34:34;;;;;;;14.10;11.07;;;;;;;11.31;100.00;100966.66;4963385;28;20054;-93
2023/07/21 04:37:04;;;;;;;14.93;11.77;;;;;;;11.27;100.00;100949.16;4964072;28;20037;-94
2023/07/21 04:39:47;;;;;;;14.70;12.15;;;;;;;11.28;100.00;100953.50;4996186;28;20482;-94
2023/07/21 04:42:15;;;;;;;17.40;13.07;;;;;;;11.35;100.00;100963.31;4979446;28;20089;-94
2023/07/21 04:44:43;;;;;;;18.67;13.52;;;;;;;11.39;100.00;100955.53;4979659;28;20026;-94
2023/07/21 04:47:08;;;;;;;14.70;13.00;;;;;;;11.45;100.00;100949.22;4978926;28;20088;-94
2023/07/21 04:49:39;;;;;;;19.43;12.93;;;;;;;11.58;100.00;100962.72;4979516;28;20026;-94
2023/07/21 04:52:09;;;;;;;18.15;13.57;;;;;;;11.65;100.00;100953.69;4979270;28;20027;-93
2023/07/21 04:54:46;;;;;;;;;;;;;;;;;;;;;
2023/07/21 04:57:27;;;;;;;18.23;14.93;;;;;;;11.76;100.00;100948.38;4996542;28;20038;-94
2023/07/21 04:59:56;;;;;;;17.85;14.77;;;;;;;11.86;100.00;100947.06;4965102;28;20035;-94
2023/07/21 05:02:29;;;;;;;19.27;14.15;;;;;;;12.00;100.00;100953.25;4962141;28;20050;-94
2023/07/21 05:05:12;;;;;;;17.10;13.95;;;;;;;12.02;100.00;100951.16;4978525;28;20057;-93
2023/07/21 05:07:41;;;;;;;20.10;14.68;;;;;;;12.11;100.00;100953.34;4972380;28;20038;-94
2023/07/21 05:10:09;;;;;;;17.07;13.83;;;;;;;12.26;100.00;100961.16;4963008;28;20031;-94
2023/07/21 05:12:45;;;;;;;15.82;13.73;;;;;;;12.31;100.00;100951.50;4979150;28;20034;-94
2023/07/21 05:15:26;;;;;;;;;;;;;;;;;;;;;
2023/07/21 05:17:52;;;;;;;19.35;14.40;;;;;;;12.44;100.00;100946.75;4996061;28;20038;-89
2023/07/21 05:20:20;;;;;;;18.30;14.33;;;;;;;12.57;100.00;100940.34;4977302;28;20426;-85
2023/07/21 05:22:46;;;;;;;16.23;12.85;;;;;;;12.71;100.00;100946.47;4994874;28;20045;-89
2023/07/21 05:25:16;;;;;;;15.43;12.93;;;;;;;12.82;100.00;100942.16;4978200;28;20391;-86
2023/07/21 05:27:41;;;;;;;17.35;13.70;;;;;;;12.95;100.00;100950.16;4994999;28;20060;-86
2023/07/21 05:30:11;;;;;;;16.70;13.27;;;;;;;13.17;100.00;100955.13;4961112;28;20495;-88
2023/07/21 05:32:39;;;;;;;16.33;13.50;;;;;;;13.30;100.00;100954.09;4977827;28;20473;-88
2023/07/21 05:35:10;;;;;;;15.55;12.95;;;;;;;13.47;100.00;100965.22;4977341;28;20463;-88
2023/07/21 05:37:36;;;;;;;17.42;13.23;;;;;;;13.63;100.00;100961.00;4977210;28;20046;-88
2023/07/21 05:40:02;;;;;;;16.83;12.67;;;;;;;13.77;100.00;100962.44;4977079;28;20034;-89
2023/07/21 05:42:27;;;;;;;16.90;13.35;;;;;;;13.95;100.00;100955.25;4994609;28;20494;-88
2023/07/21 05:44:53;;;;;;;13.77;12.30;;;;;;;14.11;100.00;100961.91;4961897;28;20161;-89
2023/07/21 05:47:19;;;;;;;15.60;11.60;;;;;;;14.22;100.00;100950.19;4960988;28;20048;-88
2023/07/21 05:49:45;;;;;;;13.60;11.18;;;;;;;14.36;100.00;100958.94;4976757;28;20041;-88
2023/07/21 05:52:13;;;;;;;16.77;11.95;;;;;;;14.46;100.00;100955.63;4976798;28;20035;-89
2023/07/21 05:54:39;;;;;;;15.00;11.35;;;;;;;14.60;100.00;100967.13;4978074;28;20479;-89
2023/07/21 05:57:05;;;;;;;13.65;11.48;;;;;;;14.67;100.00;100955.03;4976869;28;20125;-88
2023/07/21 05:59:34;;;;;;;15.10;11.33;;;;;;;14.77;100.00;100951.69;4977640;28;20062;-88
2023/07/21 06:02:00;;;;;;;24.23;10.50;;;;;;;14.88;100.00;100961.78;4994299;28;20464;-88
2023/07/21 06:04:25;;;;;;;13.25;10.50;;;;;;;14.86;100.00;100966.63;4976867;28;20065;-88
2023/07/21 06:06:51;;;;;;;13.43;10.97;;;;;;;14.86;100.00;100969.34;4976601;28;20133;-89
2023/07/21 06:09:17;;;;;;;12.83;10.33;;;;;;;14.91;100.00;100958.56;4960932;28;20038;-88
2023/07/21 06:11:42;;;;;;;13.70;10.38;;;;;;;15.09;100.00;100965.75;4976759;28;20038;-88
2023/07/21 06:14:08;;;;;;;13.40;10.70;;;;;;;15.25;100.00;100966.03;4980431;28;20046;-90
2023/07/21 06:16:33;;;;;;;12.63;11.30;;;;;;;15.39;100.00;100961.13;4981033;28;20035;-89
2023/07/21 06:19:00;;;;;;;12.87;11.40;;;;;;;15.34;100.00;100948.19;4999147;28;20037;-87
2023/07/21 06:21:25;;;;;;;16.67;11.65;;;;;;;15.47;100.00;100960.69;4965932;28;20379;-88
2023/07/21 06:23:53;;;;;;;13.93;11.60;;;;;;;15.54;100.00;100960.56;4964643;28;20034;-88
2023/07/21 06:26:19;;;;;;;14.02;10.45;;;;;;;15.55;99.60;100949.38;4964993;28;20470;-88
2023/07/21 06:28:44;;;;;;;13.75;10.80;;;;;;;15.61;99.27;100945.66;4980592;28;20078;-89
2023/07/21 06:31:10;;;;;;;14.93;11.40;;;;;;;15.65;99.07;100948.75;4997620;28;20035;-89
2023/07/21 06:33:37;;;;;;;15.90;10.88;;;;;;;15.73;98.77;100948.31;4998303;28;20046;-87
2023/07/21 06:36:02;;;;;;;13.98;10.85;;;;;;;15.86;97.49;100952.66;4998335;28;20109;-89
2023/07/21 06:38:28;;;;;;;14.00;11.43;;;;;;;15.95;95.90;100955.81;4981155;28;20041;-89
2023/07/21 06:40:53;;;;;;;16.30;11.27;;;;;;;16.04;96.51;100957.06;4997680;28;20047;-90
2023/07/21 06:43:19;;;;;;;15.53;11.60;;;;;;;16.18;95.91;100956.72;4997928;28;20495;-90
2023/07/21 06:45:44;;;;;;;14.47;12.10;;;;;;;16.20;94.56;100938.97;4964380;28;20088;-89
2023/07/21 06:48:11;;;;;;;16.27;11.93;;;;;;;16.30;93.87;100947.34;4965364;28;20286;-88
2023/07/21 06:50:38;;;;;;;15.45;11.40;;;;;;;16.45;93.96;100946.72;4997324;28;20402;-89
2023/07/21 06:53:05;;;;;;;16.57;11.87;;;;;;;16.57;92.98;100949.34;4964016;28;20509;-91
2023/07/21 06:55:33;;;;;;;16.08;11.77;;;;;;;16.69;92.07;100951.97;4997421;28;20089;-89
2023/07/21 06:58:12;;;;;;;14.98;10.88;;;;;;;16.84;92.63;100949.44;4980147;28;20474;-90
2023/07/21 07:00:37;;;;;;;15.07;11.75;;;;;;;16.95;90.59;100955.91;4980175;28;20081;-90
2023/07/21 07:03:03;;;;;;;12.17;10.80;;;;;;;17.10;90.32;100957.19;4997746;28;20031;-90
2023/07/21 07:05:29;;;;;;;18.47;11.73;;;;;;;17.16;89.89;100939.69;4963991;28;20030;-90
2023/07/21 07:07:57;;;;;;;15.95;11.30;;;;;;;17.16;89.27;100937.78;4964096;28;20042;-90
2023/07/21 07:10:22;;;;;;;15.15;11.07;;;;;;;17.25;89.36;100943.63;4979858;28;20129;-90
2023/07/21 07:12:47;;;;;;;14.20;10.97;;;;;;;17.39;89.22;100943.22;4980079;28;20506;-90
2023/07/21 07:15:13;;;;;;;16.13;11.53;;;;;;;17.44;88.24;100937.81;4997587;28;20053;-90
2023/07/21 07:17:38;;;;;;;14.63;11.70;;;;;;;17.56;88.25;100929.41;4980735;28;20037;-90
2023/07/21 07:20:07;;;;;;;16.37;12.20;;;;;;;17.55;86.28;100934.03;4979571;28;20026;-90
2023/07/21 07:22:32;;;;;;;15.20;11.68;;;;;;;17.66;87.61;100943.22;4964072;28;20034;-90
2023/07/21 07:25:00;;;;;;;17.30;12.17;;;;;;;17.67;86.69;100929.25;4980004;28;20053;-90
2023/07/21 07:27:26;;;;;;;15.45;13.13;;;;;;;17.76;85.79;100935.06;4979954;28;20366;-90
2023/07/21 07:29:51;;;;;;;16.33;12.60;;;;;;;17.93;85.02;100928.66;4979978;28;20113;-91
2023/07/21 07:32:19;;;;;;;17.57;12.73;;;;;;;18.13;84.01;100934.28;4979637;28;20037;-91
2023/07/21 07:34:44;;;;;;;18.35;12.40;;;;;;;18.38;82.89;100933.63;4963612;28;20041;-91
2023/07/21 07:37:10;;;;;;;16.20;12.00;;;;;;;18.56;81.47;100932.34;4979602;28;20030;-90
2023/07/21 07:39:35;;;;;;;16.30;12.13;;;;;;;18.86;80.07;100935.53;4979284;28;20395;-90
2023/07/21 07:42:01;;;;;;;17.85;12.80;;;;;;;19.07;79.04;100942.75;4979327;28;20035;-91
2023/07/21 07:44:26;;;;;;;15.70;11.27;;;;;;;19.15;77.49;100940.56;4979733;28;20030;-90
2023/07/21 07:46:55;;;;;;;15.13;11.23;;;;;;;19.35;76.80;100946.13;4981834;28;20105;-90
2023/07/21 07:49:21;;;;;;;13.82;10.50;;;;;;;19.64;76.58;100942.88;4997265;28;20026;-90
2023/07/21 07:51:48;;;;;;;16.50;11.43;;;;;;;19.74;73.60;100947.56;4996822;28;20107;-90
2023/07/21 07:54:14;;;;;;;16.15;11.50;;;;;;;19.83;72.86;100948.69;4979199;28;20108;-90
2023/07/21 07:56:39;;;;;;;11.17;9.83;;;;;;;20.01;72.38;100943.72;4996719;28;20038;-90
2023/07/21 07:59:05;;;;;;;14.97;10.73;;;;;;;20.22;70.53;100939.84;4996580;28;20026;-90
2023/07/21 08:01:30;;;;;;;15.13;11.38;;;;;;;20.41;67.66;100953.03;4996422;28;20459;-90
2023/07/21 08:03:56;;;;;;;16.30;11.57;;;;;;;20.50;68.50;100937.56;4978974;28;20034;-90
2023/07/21 08:06:22;;;;;;;13.83;9.80;;;;;;;20.51;65.91;100941.97;4978860;28;20066;-90
2023/07/21 08:08:47;;;;;;;11.00;8.57;;;;;;;20.66;66.50;100944.72;4962723;28;20041;-90
2023/07/21 08:11:13;;;;;;;11.50;9.20;;;;;;;20.73;65.58;100944.41;4978664;28;20041;-90
2023/07/21 08:13:39;;;;;;;11.23;8.80;;;;;;;20.74;64.11;100937.78;4962641;28;20041;-90
2023/07/21 08:16:13;;;;;;;17.30;10.50;;;;;;;20.84;66.50;100937.75;4962514;28;20040;-90
2023/07/21 08:18:39;;;;;;;13.80;10.38;;;;;;;21.04;65.10;100936.03;4979267;28;20085;-89
2023/07/21 08:21:22;;;;;;;13.05;9.15;;;;;;;21.40;66.41;100934.97;4979118;28;20463;-90
2023/07/21 08:23:50;;;;;;;19.17;12.27;;;;;;;21.51;63.74;100931.91;4996347;28;20038;-88
2023/07/21 08:26:16;;;;;;;15.82;10.63;;;;;;;21.63;62.97;100930.69;4978654;28;20038;-89
2023/07/21 08:28:41;;;;;;;17.23;11.57;;;;;;;21.71;62.28;100921.78;4978353;28;20133;-89
2023/07/21 08:31:09;;;;;;;15.10;11.43;;;;;;;21.94;62.72;100928.50;4962455;28;20181;-90
2023/07/21 08:33:35;;;;;;;12.75;10.93;;;;;;;22.10;61.99;100936.66;4978300;28;20057;-89
2023/07/21 08:36:00;;;;;;;13.35;10.63;;;;;;;22.13;60.23;100945.19;4961803;28;20493;-94
2023/07/21 08:38:25;;;;;;;15.80;10.67;;;;;;;21.90;59.48;100933.78;4978608;28;20398;-87
2023/07/21 08:40:58;;;;;;;13.63;10.67;;;;;;;21.78;61.17;100930.56;4962375;28;20043;-88
2023/07/21 08:43:24;;;;;;;16.63;12.38;;;;;;;21.85;61.16;100944.03;4995679;28;20034;-88
2023/07/21 08:45:50;;;;;;;14.88;12.07;;;;;;;21.75;59.83;100942.19;4995252;28;20505;-88
2023/07/21 08:48:17;;;;;;;15.27;11.32;;;;;;;21.90;59.74;100944.00;4977941;28;20045;-88
2023/07/21 08:50:47;;;;;;;17.47;11.33;;;;;;;21.93;58.89;100934.31;4978682;28;20085;-88
2023/07/21 08:53:13;;;;;;;14.20;10.77;;;;;;;21.89;59.68;100936.81;4977901;28;20046;-88
2023/07/21 08:55:39;;;;;;;14.10;10.90;;;;;;;21.85;59.99;100939.34;4945580;28;20038;-88
2023/07/21 08:58:06;;;;;;;12.57;10.10;;;;;;;21.67;58.79;100945.56;4961986;28;20111;-88
2023/07/21 09:00:31;;;;;;;13.02;9.40;;;;;;;21.34;59.16;100942.47;4977994;28;20030;-89
2023/07/21 09:03:01;;;;;;;13.27;9.90;;;;;;;21.18;59.56;100936.19;4994822;28;20053;-88
2023/07/21 09:05:27;;;;;;;13.52;10.88;;;;;;;21.17;60.22;100943.66;4995384;28;20030;-89
2023/07/21 09:07:52;;;;;;;14.63;11.30;;;;;;;20.98;60.44;100939.91;4977652;28;20089;-88
2023/07/21 09:10:32;;;;;;;16.23;12.30;;;;;;;20.82;60.96;100948.25;4994966;28;20030;-88
2023/07/21 09:12:59;;;;;;;15.88;11.40;;;;;;;20.62;61.91;100935.31;4977889;28;20323;-88
2023/07/21 09:15:24;;;;;;;16.45;11.80;;;;;;;20.65;62.91;100928.41;4977747;28;20041;-88
2023/07/21 09:17:52;;;;;;;14.03;11.47;;;;;;;20.84;63.04;100934.97;4977948;28;20399;-88
2023/07/21 09:20:18;;;;;;;16.38;12.02;;;;;;;21.03;61.81;100939.88;4995083;28;20045;-88
2023/07/21 09:22:50;;;;;;;19.50;13.67;;;;;;;21.16;62.92;100938.44;4977732;28;20046;-88
2023/07/21 09:25:24;;;;;;;21.42;14.63;;;;;;;21.27;61.94;100942.75;4961272;28;20471;-88
2023/07/21 09:27:57;;;;;;;20.92;15.63;;;;;;;21.38;61.35;100949.88;4977828;28;20069;-88
2023/07/21 09:30:23;;;;;;;20.58;15.60;;;;;;;21.66;59.52;100928.19;4961034;28;20045;-88
2023/07/21 09:32:55;;;;;;;19.60;14.27;;;;;;;21.96;58.89;100931.78;4994764;28;20038;-88
2023/07/21 09:35:21;;;;;;;20.05;15.48;;;;;;;22.37;56.81;100925.91;4994749;28;20105;-88
2023/07/21 09:37:51;;;;;;;18.73;14.55;;;;;;;22.51;56.35;100926.00;4994890;28;20065;-88
2023/07/21 09:40:17;;;;;;;17.67;14.35;;;;;;;22.66;55.30;100910.34;4961076;28;20053;-89
2023/07/21 09:42:43;;;;;;;19.90;14.80;;;;;;;22.81;53.79;100924.00;4977307;28;20030;-89
2023/07/21 09:45:09;;;;;;;19.33;14.88;;;;;;;22.76;54.03;100913.00;4976941;28;20042;-88
2023/07/21 09:47:37;;;;;;;17.98;14.57;;;;;;;22.66;54.03;100913.13;4994212;28;20022;-88
2023/07/21 09:50:03;;;;;;;19.67;13.95;;;;;;;22.86;53.16;100909.28;4976965;28;20034;-89
2023/07/21 09:52:37;;;;;;;16.25;13.40;;;;;;;23.25;53.56;100899.91;4977970;28;20478;-88
2023/07/21 09:55:13;;;;;;;16.93;12.53;;;;;;;23.48;51.97;100903.72;4994835;28;20051;-88
2023/07/21 09:57:44;;;;;;;17.45;12.35;;;;;;;23.74;52.03;100904.13;4976876;28;20085;-88
2023/07/21 10:00:14;;;;;;;17.98;12.43;;;;;;;23.94;50.12;100905.72;4976538;28;20083;-88
2023/07/21 10:02:43;;;;;;;17.52;13.05;;;;;;;23.76;50.72;100910.16;4977625;28;20058;-88
2023/07/21 10:05:10;;;;;;;21.70;13.63;;;;;;;23.00;51.71;100909.38;4976886;28;20031;-87
2023/07/21 10:07:38;;;;;;;15.80;12.93;;;;;;;22.72;52.97;100904.47;4976489;28;20037;-88
2023/07/21 10:10:05;;;;;;;16.80;13.57;;;;;;;22.53;53.16;100915.50;4976799;28;20475;-84
2023/07/21 10:12:49;;;;;;;13.63;11.85;;;;;;;22.07;56.35;100916.78;4963693;28;20045;-92
2023/07/21 10:15:17;;;;;;;16.45;12.52;;;;;;;21.16;60.08;100922.69;4976852;28;20117;-92
2023/07/21 10:18:01;;;;;;;18.95;13.25;;;;;;;20.05;65.71;100915.34;4976521;28;20446;-92
2023/07/21 10:20:39;;;;;;;19.10;14.07;;;;;;;19.08;73.09;100919.66;4976985;28;20033;-92
2023/07/21 10:23:08;;;;;;;22.77;15.75;;;;;;;18.57;82.89;100913.94;4977392;28;20533;-92
2023/07/21 10:25:53;;;;;;;27.60;16.70;;;;;;;18.21;84.23;100931.03;4994385;28;20081;-93
2023/07/21 10:28:39;;;;;;;25.40;17.95;;;;;;;17.95;87.14;100921.81;4976670;28;20104;-93
2023/07/21 10:31:28;;;;;;;30.83;18.88;;;;;;;17.87;90.70;100927.75;4977360;28;20026;-92
2023/07/21 10:34:06;;;;;;;21.97;17.90;;;;;;;17.61;90.11;100940.41;4976753;28;20030;-92
2023/07/21 10:36:53;;;;;;;31.92;19.77;;;;;;;17.23;100.00;100945.81;4976983;28;20482;-93
2023/07/21 10:39:24;;;;;;;58.55;23.90;;;;;;;16.66;100.00;100971.66;4977457;28;20065;-92
2023/07/21 10:41:57;;;;;;;51.70;28.02;;;;;;;15.93;100.00;100960.72;4976761;28;20049;-90
2023/07/21 10:44:23;;;;;;;46.80;29.35;;;;;;;15.24;100.00;100943.34;4976581;28;20180;-89
2023/07/21 10:46:55;;;;;;;42.10;29.53;;;;;;;14.99;100.00;100951.88;4976321;28;20038;-89
2023/07/21 10:49:26;;;;;;;43.13;28.85;;;;;;;15.09;100.00;100951.25;4976768;28;20117;-89
2023/07/21 10:51:51;;;;;;;47.20;30.48;;;;;;;14.99;100.00;100954.59;4976360;28;20060;-89
2023/07/21 10:54:41;;;;;;;43.30;29.70;;;;;;;14.91;100.00;100961.28;4975893;28;20065;-89
2023/07/21 10:57:11;;;;;;;35.83;24.73;;;;;;;14.71;100.00;100955.38;4976028;28;20038;-89
2023/07/21 10:59:39;;;;;;;35.97;24.73;;;;;;;14.61;100.00;100971.53;4977432;28;20447;-90
2023/07/21 11:02:11;;;;;;;27.17;16.98;;;;;;;14.42;100.00;100968.91;4979611;28;20026;-89
2023/07/21 11:04:42;;;;;;;27.50;18.40;;;;;;;14.34;100.00;100969.28;4980468;28;20057;-91
2023/07/21 11:07:09;;;;;;;25.13;16.70;;;;;;;14.22;100.00;100969.28;4979919;28;20113;-90
2023/07/21 11:09:45;;;;;;;24.10;16.67;;;;;;;14.08;100.00;100962.38;4979850;28;20030;-88
2023/07/21 11:12:23;;;;;;;18.50;15.23;;;;;;;14.00;100.00;100980.75;4979696;28;20037;-87
2023/07/21 11:14:48;;;;;;;20.42;16.02;;;;;;;13.96;100.00;100982.28;4965887;28;20041;-88
2023/07/21 11:17:22;;;;;;;26.07;18.97;;;;;;;14.21;100.00;100984.00;4997139;28;20483;-88
2023/07/21 11:19:50;;;;;;;24.27;17.48;;;;;;;14.23;100.00;100992.75;4981136;28;20102;-88
2023/07/21 11:22:16;;;;;;;22.98;18.10;;;;;;;14.25;100.00;100996.09;4979647;28;20033;-88
2023/07/21 11:25:10;;;;;;;24.17;18.80;;;;;;;14.45;100.00;100997.63;4979397;28;20026;-88
2023/07/21 11:28:05;;;;;;;26.02;20.17;;;;;;;14.64;100.00;100995.66;4979615;28;20091;-88